sensor_id;sensor_type;location;lat;lon;timestamp;pressure;altitude;pressure_sealevel;temperature;humidity
55916;BME280;41826;53.246;-6.670;2023-01-19T00:00:11;100403.25;;;-0.23;100.00
55916;BME280;41826;53.246;-6.670;2023-01-19T00:02:37;100410.25;;;-0.25;100.00
55916;BME280;41826;53.246;-6.670;2023-01-19T00:05:03;100404.44;;;0.03;100.00
55916;BME280;41826;53.246;-6.670;2023-01-19T00:07:32;100404.75;;;-0.19;100.00
55916;BME280;41826;53.246;-6.670;2023-01-19T00:09:58;100400.66;;;-0.39;100.00
55916;BME280;41826;53.246;-6.670;2023-01-19T00:12:24;100403.09;;;-0.20;100.00
55916;BME280;41826;53.246;-6.670;2023-01-19T00:14:52;100402.34;;;-0.22;100.00
55916;BME280;41826;53.246;-6.670;2023-01-19T00:17:17;100396.66;;;-0.29;100.00
55916;BME280;41826;53.246;-6.670;2023-01-19T00:19:42;100392.84;;;-0.37;100.00
55916;BME280;41826;53.246;-6.670;2023-01-19T00:22:08;100389.09;;;-0.48;100.00
55916;BME280;41826;53.246;-6.670;2023-01-19T00:24:33;100387.94;;;-0.42;100.00
55916;BME280;41826;53.246;-6.670;2023-01-19T00:26:59;100384.34;;;-0.39;100.00
55916;BME280;41826;53.246;-6.670;2023-01-19T00:29:26;100382.38;;;-0.34;100.00
55916;BME280;41826;53.246;-6.670;2023-01-19T00:31:54;100367.41;;;-0.28;100.00
55916;BME280;41826;53.246;-6.670;2023-01-19T00:34:20;100366.00;;;-0.17;100.00
55916;BME280;41826;53.246;-6.670;2023-01-19T00:36:46;100367.72;;;-0.18;100.00
55916;BME280;41826;53.246;-6.670;2023-01-19T00:39:12;100367.13;;;-0.23;100.00
55916;BME280;41826;53.246;-6.670;2023-01-19T00:41:38;100370.00;;;-0.28;100.00
55916;BME280;41826;53.246;-6.670;2023-01-19T00:44:22;100370.63;;;-0.40;100.00
55916;BME280;41826;53.246;-6.670;2023-01-19T00:46:47;100377.38;;;-0.22;100.00
55916;BME280;41826;53.246;-6.670;2023-01-19T00:49:13;100375.16;;;-0.28;100.00
55916;BME280;41826;53.246;-6.670;2023-01-19T00:51:39;100372.28;;;-0.23;100.00
55916;BME280;41826;53.246;-6.670;2023-01-19T00:54:04;100373.38;;;-0.43;100.00
55916;BME280;41826;53.246;-6.670;2023-01-19T00:56:35;100373.88;;;-0.36;100.00
55916;BME280;41826;53.246;-6.670;2023-01-19T00:59:00;100372.97;;;-0.35;100.00
55916;BME280;41826;53.246;-6.670;2023-01-19T01:01:26;100371.22;;;-0.35;100.00
55916;BME280;41826;53.246;-6.670;2023-01-19T01:03:51;100360.81;;;-0.33;100.00
55916;BME280;41826;53.246;-6.670;2023-01-19T01:06:20;100371.53;;;-0.41;100.00
55916;BME280;41826;53.246;-6.670;2023-01-19T01:08:46;100365.53;;;-0.41;100.00
55916;BME280;41826;53.246;-6.670;2023-01-19T01:11:11;100364.66;;;-0.40;100.00
55916;BME280;41826;53.246;-6.670;2023-01-19T01:13:36;100358.75;;;-0.42;100.00
55916;BME280;41826;53.246;-6.670;2023-01-19T01:16:02;100361.72;;;-0.50;100.00
55916;BME280;41826;53.246;-6.670;2023-01-19T01:18:28;100349.19;;;-0.25;100.00
55916;BME280;41826;53.246;-6.670;2023-01-19T01:21:05;100342.28;;;-0.40;100.00
55916;BME280;41826;53.246;-6.670;2023-01-19T01:23:31;100356.91;;;-0.25;100.00
55916;BME280;41826;53.246;-6.670;2023-01-19T01:25:56;100342.59;;;-0.14;100.00
55916;BME280;41826;53.246;-6.670;2023-01-19T01:28:22;100344.25;;;-0.29;100.00
55916;BME280;41826;53.246;-6.670;2023-01-19T01:30:53;100345.03;;;-0.27;100.00
55916;BME280;41826;53.246;-6.670;2023-01-19T01:33:18;100337.13;;;-0.40;100.00
55916;BME280;41826;53.246;-6.670;2023-01-19T01:35:44;100341.50;;;-0.26;100.00
55916;BME280;41826;53.246;-6.670;2023-01-19T01:38:09;100328.28;;;-0.36;100.00
55916;BME280;41826;53.246;-6.670;2023-01-19T01:40:38;100337.28;;;-0.27;100.00
55916;BME280;41826;53.246;-6.670;2023-01-19T01:43:11;100331.38;;;-0.29;100.00
55916;BME280;41826;53.246;-6.670;2023-01-19T01:45:38;100334.59;;;-0.26;100.00
55916;BME280;41826;53.246;-6.670;2023-01-19T01:48:18;100327.28;;;-0.33;100.00
55916;BME280;41826;53.246;-6.670;2023-01-19T01:50:55;100336.59;;;-0.31;100.00
55916;BME280;41826;53.246;-6.670;2023-01-19T01:53:42;100325.72;;;-0.20;100.00
55916;BME280;41826;53.246;-6.670;2023-01-19T01:56:14;100323.78;;;-0.16;100.00
55916;BME280;41826;53.246;-6.670;2023-01-19T01:58:42;100325.88;;;-0.23;100.00
55916;BME280;41826;53.246;-6.670;2023-01-19T02:01:08;100324.03;;;-0.21;100.00
55916;BME280;41826;53.246;-6.670;2023-01-19T02:03:52;100323.13;;;-0.20;100.00
55916;BME280;41826;53.246;-6.670;2023-01-19T02:06:18;100321.69;;;-0.26;100.00
55916;BME280;41826;53.246;-6.670;2023-01-19T02:08:51;100330.72;;;-0.17;100.00
55916;BME280;41826;53.246;-6.670;2023-01-19T02:11:36;100327.63;;;-0.24;100.00
55916;BME280;41826;53.246;-6.670;2023-01-19T02:14:22;100314.13;;;-0.29;100.00
55916;BME280;41826;53.246;-6.670;2023-01-19T02:16:48;100315.53;;;-0.23;100.00
55916;BME280;41826;53.246;-6.670;2023-01-19T02:19:18;100311.09;;;-0.35;100.00
55916;BME280;41826;53.246;-6.670;2023-01-19T02:22:02;100309.16;;;-0.32;100.00
55916;BME280;41826;53.246;-6.670;2023-01-19T02:24:30;100307.66;;;-0.20;100.00
55916;BME280;41826;53.246;-6.670;2023-01-19T02:26:56;100312.81;;;-0.20;100.00
55916;BME280;41826;53.246;-6.670;2023-01-19T02:29:24;100310.50;;;-0.25;100.00
55916;BME280;41826;53.246;-6.670;2023-01-19T02:31:50;100308.56;;;-0.21;100.00
55916;BME280;41826;53.246;-6.670;2023-01-19T02:34:18;100310.31;;;-0.22;100.00
55916;BME280;41826;53.246;-6.670;2023-01-19T02:36:53;100310.66;;;-0.28;100.00
55916;BME280;41826;53.246;-6.670;2023-01-19T02:39:29;100312.72;;;-0.18;100.00
55916;BME280;41826;53.246;-6.670;2023-01-19T02:42:04;100306.31;;;-0.11;100.00
55916;BME280;41826;53.246;-6.670;2023-01-19T02:44:32;100310.38;;;-0.23;100.00
55916;BME280;41826;53.246;-6.670;2023-01-19T02:46:59;100304.66;;;-0.12;100.00
55916;BME280;41826;53.246;-6.670;2023-01-19T02:49:27;100308.31;;;-0.16;100.00
55916;BME280;41826;53.246;-6.670;2023-01-19T02:51:53;100307.81;;;-0.23;100.00
55916;BME280;41826;53.246;-6.670;2023-01-19T03:08:06;100293.41;;;-0.11;100.00
55916;BME280;41826;53.246;-6.670;2023-01-19T03:13:15;100296.16;;;-0.14;100.00
55916;BME280;41826;53.246;-6.670;2023-01-19T03:15:50;100293.66;;;-0.16;100.00
55916;BME280;41826;53.246;-6.670;2023-01-19T03:18:22;100299.34;;;-0.25;100.00
55916;BME280;41826;53.246;-6.670;2023-01-19T03:20:51;100292.00;;;-0.17;100.00
55916;BME280;41826;53.246;-6.670;2023-01-19T03:23:19;100301.41;;;-0.16;100.00
55916;BME280;41826;53.246;-6.670;2023-01-19T03:25:47;100288.50;;;-0.16;100.00
55916;BME280;41826;53.246;-6.670;2023-01-19T03:28:15;100291.59;;;-0.09;100.00
55916;BME280;41826;53.246;-6.670;2023-01-19T03:30:47;100289.84;;;-0.09;100.00
55916;BME280;41826;53.246;-6.670;2023-01-19T03:33:22;100281.09;;;-0.06;100.00
55916;BME280;41826;53.246;-6.670;2023-01-19T03:35:53;100281.41;;;0.04;100.00
55916;BME280;41826;53.246;-6.670;2023-01-19T03:38:24;100284.06;;;0.02;100.00
55916;BME280;41826;53.246;-6.670;2023-01-19T03:40:53;100283.66;;;-0.06;100.00
55916;BME280;41826;53.246;-6.670;2023-01-19T03:43:21;100281.72;;;-0.03;100.00
55916;BME280;41826;53.246;-6.670;2023-01-19T03:45:49;100288.19;;;-0.10;100.00
55916;BME280;41826;53.246;-6.670;2023-01-19T03:48:15;100282.66;;;-0.04;100.00
55916;BME280;41826;53.246;-6.670;2023-01-19T03:50:42;100285.81;;;0.02;100.00
55916;BME280;41826;53.246;-6.670;2023-01-19T03:53:12;100283.50;;;-0.03;100.00
55916;BME280;41826;53.246;-6.670;2023-01-19T03:55:41;100285.56;;;0.06;100.00
55916;BME280;41826;53.246;-6.670;2023-01-19T03:58:07;100275.59;;;-0.16;100.00
55916;BME280;41826;53.246;-6.670;2023-01-19T04:00:33;100272.34;;;-0.04;100.00
55916;BME280;41826;53.246;-6.670;2023-01-19T04:03:01;100270.69;;;-0.05;100.00
55916;BME280;41826;53.246;-6.670;2023-01-19T04:05:27;100268.13;;;-0.05;100.00
55916;BME280;41826;53.246;-6.670;2023-01-19T04:07:55;100269.63;;;-0.16;100.00
55916;BME280;41826;53.246;-6.670;2023-01-19T04:10:22;100269.94;;;-0.07;100.00
55916;BME280;41826;53.246;-6.670;2023-01-19T04:12:48;100268.44;;;-0.11;100.00
55916;BME280;41826;53.246;-6.670;2023-01-19T04:15:14;100269.63;;;-0.16;100.00
55916;BME280;41826;53.246;-6.670;2023-01-19T04:17:39;100266.53;;;-0.07;100.00
55916;BME280;41826;53.246;-6.670;2023-01-19T04:20:06;100269.19;;;-0.09;100.00
55916;BME280;41826;53.246;-6.670;2023-01-19T04:22:32;100271.78;;;-0.09;100.00
55916;BME280;41826;53.246;-6.670;2023-01-19T04:24:58;100266.59;;;-0.09;100.00
55916;BME280;41826;53.246;-6.670;2023-01-19T04:27:23;100272.59;;;-0.08;100.00
55916;BME280;41826;53.246;-6.670;2023-01-19T04:29:50;100276.19;;;-0.27;100.00
55916;BME280;41826;53.246;-6.670;2023-01-19T04:32:16;100274.97;;;-0.35;100.00
55916;BME280;41826;53.246;-6.670;2023-01-19T04:34:41;100282.13;;;-0.40;100.00
55916;BME280;41826;53.246;-6.670;2023-01-19T04:37:07;100281.97;;;-0.37;100.00
55916;BME280;41826;53.246;-6.670;2023-01-19T04:39:33;100281.00;;;-0.20;100.00
55916;BME280;41826;53.246;-6.670;2023-01-19T04:41:59;100277.44;;;-0.18;100.00
55916;BME280;41826;53.246;-6.670;2023-01-19T04:44:25;100286.78;;;-0.31;100.00
55916;BME280;41826;53.246;-6.670;2023-01-19T04:46:51;100282.78;;;-0.21;100.00
55916;BME280;41826;53.246;-6.670;2023-01-19T04:49:17;100281.94;;;-0.22;100.00
55916;BME280;41826;53.246;-6.670;2023-01-19T04:51:42;100281.75;;;-0.18;100.00
55916;BME280;41826;53.246;-6.670;2023-01-19T04:54:09;100284.75;;;-0.10;100.00
55916;BME280;41826;53.246;-6.670;2023-01-19T04:56:36;100291.50;;;-0.24;100.00
55916;BME280;41826;53.246;-6.670;2023-01-19T04:59:02;100283.34;;;-0.16;100.00
55916;BME280;41826;53.246;-6.670;2023-01-19T05:01:27;100283.41;;;-0.02;100.00
55916;BME280;41826;53.246;-6.670;2023-01-19T05:03:52;100293.16;;;-0.38;100.00
55916;BME280;41826;53.246;-6.670;2023-01-19T05:06:18;100289.25;;;-0.14;100.00
55916;BME280;41826;53.246;-6.670;2023-01-19T05:08:43;100287.66;;;-0.01;100.00
55916;BME280;41826;53.246;-6.670;2023-01-19T05:11:09;100291.88;;;-0.46;100.00
55916;BME280;41826;53.246;-6.670;2023-01-19T05:13:34;100283.16;;;-0.13;100.00
55916;BME280;41826;53.246;-6.670;2023-01-19T05:16:00;100284.66;;;-0.09;100.00
55916;BME280;41826;53.246;-6.670;2023-01-19T05:18:25;100284.50;;;-0.06;100.00
55916;BME280;41826;53.246;-6.670;2023-01-19T05:20:52;100280.59;;;-0.13;100.00
55916;BME280;41826;53.246;-6.670;2023-01-19T05:23:17;100283.94;;;-0.27;100.00
55916;BME280;41826;53.246;-6.670;2023-01-19T05:25:43;100296.84;;;-0.27;100.00
55916;BME280;41826;53.246;-6.670;2023-01-19T05:28:09;100282.78;;;-0.37;100.00
55916;BME280;41826;53.246;-6.670;2023-01-19T05:30:34;100284.88;;;-0.28;100.00
55916;BME280;41826;53.246;-6.670;2023-01-19T05:33:00;100293.03;;;-0.35;100.00
55916;BME280;41826;53.246;-6.670;2023-01-19T05:35:27;100294.84;;;-0.37;100.00
55916;BME280;41826;53.246;-6.670;2023-01-19T05:37:53;100291.25;;;-0.51;100.00
55916;BME280;41826;53.246;-6.670;2023-01-19T05:40:18;100294.69;;;-0.34;100.00
55916;BME280;41826;53.246;-6.670;2023-01-19T05:42:44;100290.28;;;-0.32;100.00
55916;BME280;41826;53.246;-6.670;2023-01-19T05:45:09;100302.19;;;-0.46;100.00
55916;BME280;41826;53.246;-6.670;2023-01-19T05:47:36;100303.75;;;-0.43;100.00
55916;BME280;41826;53.246;-6.670;2023-01-19T05:50:02;100302.31;;;-0.49;100.00
55916;BME280;41826;53.246;-6.670;2023-01-19T05:52:29;100305.66;;;-0.47;100.00
55916;BME280;41826;53.246;-6.670;2023-01-19T05:54:55;100297.69;;;-0.42;100.00
55916;BME280;41826;53.246;-6.670;2023-01-19T05:57:21;100307.81;;;-0.39;100.00
55916;BME280;41826;53.246;-6.670;2023-01-19T05:59:47;100299.81;;;-0.66;100.00
55916;BME280;41826;53.246;-6.670;2023-01-19T06:02:12;100303.25;;;-0.50;100.00
55916;BME280;41826;53.246;-6.670;2023-01-19T06:04:37;100301.50;;;-0.49;100.00
55916;BME280;41826;53.246;-6.670;2023-01-19T06:07:04;100303.66;;;-0.41;100.00
55916;BME280;41826;53.246;-6.670;2023-01-19T06:09:30;100301.66;;;-0.68;100.00
55916;BME280;41826;53.246;-6.670;2023-01-19T06:11:56;100301.50;;;-0.65;100.00
55916;BME280;41826;53.246;-6.670;2023-01-19T06:14:24;100299.97;;;-0.69;100.00
55916;BME280;41826;53.246;-6.670;2023-01-19T06:16:50;100309.63;;;-0.73;100.00
55916;BME280;41826;53.246;-6.670;2023-01-19T06:19:15;100299.09;;;-0.68;100.00
55916;BME280;41826;53.246;-6.670;2023-01-19T06:21:41;100310.19;;;-0.83;100.00
55916;BME280;41826;53.246;-6.670;2023-01-19T06:24:08;100315.94;;;-0.78;100.00
55916;BME280;41826;53.246;-6.670;2023-01-19T06:26:33;100312.97;;;-0.71;100.00
55916;BME280;41826;53.246;-6.670;2023-01-19T06:28:59;100315.63;;;-0.72;100.00
55916;BME280;41826;53.246;-6.670;2023-01-19T06:31:24;100329.09;;;-0.67;100.00
55916;BME280;41826;53.246;-6.670;2023-01-19T06:33:50;100328.34;;;-0.69;100.00
55916;BME280;41826;53.246;-6.670;2023-01-19T06:36:15;100323.41;;;-0.74;100.00
55916;BME280;41826;53.246;-6.670;2023-01-19T06:38:41;100338.94;;;-0.58;100.00
55916;BME280;41826;53.246;-6.670;2023-01-19T06:41:06;100329.94;;;-0.51;100.00
55916;BME280;41826;53.246;-6.670;2023-01-19T06:43:32;100337.75;;;-0.52;100.00
55916;BME280;41826;53.246;-6.670;2023-01-19T06:45:57;100326.44;;;-0.50;100.00
55916;BME280;41826;53.246;-6.670;2023-01-19T06:48:25;100337.19;;;-0.57;100.00
55916;BME280;41826;53.246;-6.670;2023-01-19T06:50:50;100342.41;;;-0.59;100.00
55916;BME280;41826;53.246;-6.670;2023-01-19T06:53:16;100336.75;;;-0.50;100.00
55916;BME280;41826;53.246;-6.670;2023-01-19T06:55:44;100344.16;;;-0.59;100.00
55916;BME280;41826;53.246;-6.670;2023-01-19T06:58:10;100344.81;;;-0.56;100.00
55916;BME280;41826;53.246;-6.670;2023-01-19T07:00:36;100349.72;;;-0.51;100.00
55916;BME280;41826;53.246;-6.670;2023-01-19T07:03:02;100351.66;;;-0.55;100.00
55916;BME280;41826;53.246;-6.670;2023-01-19T07:05:30;100348.97;;;-0.53;100.00
55916;BME280;41826;53.246;-6.670;2023-01-19T07:07:56;100338.41;;;-0.49;100.00
55916;BME280;41826;53.246;-6.670;2023-01-19T07:10:23;100341.50;;;-0.42;100.00
55916;BME280;41826;53.246;-6.670;2023-01-19T07:12:49;100342.84;;;-0.35;100.00
55916;BME280;41826;53.246;-6.670;2023-01-19T07:15:18;100360.25;;;-0.23;100.00
55916;BME280;41826;53.246;-6.670;2023-01-19T07:17:46;100363.47;;;-0.19;100.00
55916;BME280;41826;53.246;-6.670;2023-01-19T07:20:12;100367.41;;;-0.28;100.00
55916;BME280;41826;53.246;-6.670;2023-01-19T07:22:41;100376.88;;;-0.28;100.00
55916;BME280;41826;53.246;-6.670;2023-01-19T07:25:08;100368.13;;;-0.26;100.00
55916;BME280;41826;53.246;-6.670;2023-01-19T07:27:33;100381.88;;;-0.25;100.00
55916;BME280;41826;53.246;-6.670;2023-01-19T07:29:59;100380.19;;;-0.26;100.00
55916;BME280;41826;53.246;-6.670;2023-01-19T07:32:27;100383.53;;;-0.24;100.00
55916;BME280;41826;53.246;-6.670;2023-01-19T07:34:54;100375.03;;;-0.26;100.00
55916;BME280;41826;53.246;-6.670;2023-01-19T07:37:21;100392.34;;;-0.28;100.00
55916;BME280;41826;53.246;-6.670;2023-01-19T07:39:46;100387.47;;;-0.17;100.00
55916;BME280;41826;53.246;-6.670;2023-01-19T07:42:12;100390.63;;;-0.12;100.00
55916;BME280;41826;53.246;-6.670;2023-01-19T07:44:37;100391.63;;;-0.14;100.00
55916;BME280;41826;53.246;-6.670;2023-01-19T07:47:02;100401.00;;;-0.13;100.00
55916;BME280;41826;53.246;-6.670;2023-01-19T07:49:30;100398.44;;;-0.13;100.00
55916;BME280;41826;53.246;-6.670;2023-01-19T07:51:56;100400.34;;;-0.17;100.00
55916;BME280;41826;53.246;-6.670;2023-01-19T07:54:21;100396.25;;;-0.21;100.00
55916;BME280;41826;53.246;-6.670;2023-01-19T07:56:47;100397.25;;;-0.24;100.00
55916;BME280;41826;53.246;-6.670;2023-01-19T07:59:12;100402.59;;;-0.27;100.00
55916;BME280;41826;53.246;-6.670;2023-01-19T08:01:40;100400.84;;;-0.26;100.00
55916;BME280;41826;53.246;-6.670;2023-01-19T08:04:05;100405.41;;;-0.15;100.00
55916;BME280;41826;53.246;-6.670;2023-01-19T08:06:35;100399.53;;;-0.17;100.00
55916;BME280;41826;53.246;-6.670;2023-01-19T08:09:02;100408.50;;;-0.09;100.00
55916;BME280;41826;53.246;-6.670;2023-01-19T08:11:30;100409.69;;;0.02;100.00
55916;BME280;41826;53.246;-6.670;2023-01-19T08:13:57;100417.31;;;-0.13;100.00
55916;BME280;41826;53.246;-6.670;2023-01-19T08:16:23;100416.31;;;-0.10;100.00
55916;BME280;41826;53.246;-6.670;2023-01-19T08:18:48;100410.97;;;-0.23;100.00
55916;BME280;41826;53.246;-6.670;2023-01-19T08:21:14;100418.19;;;-0.12;100.00
55916;BME280;41826;53.246;-6.670;2023-01-19T08:23:40;100418.81;;;-0.09;100.00
55916;BME280;41826;53.246;-6.670;2023-01-19T08:28:52;100420.16;;;-0.17;100.00
55916;BME280;41826;53.246;-6.670;2023-01-19T08:31:17;100425.00;;;-0.11;100.00
55916;BME280;41826;53.246;-6.670;2023-01-19T08:33:43;100433.56;;;-0.11;100.00
55916;BME280;41826;53.246;-6.670;2023-01-19T08:36:08;100438.88;;;-0.14;100.00
55916;BME280;41826;53.246;-6.670;2023-01-19T08:38:35;100445.28;;;-0.21;100.00
55916;BME280;41826;53.246;-6.670;2023-01-19T08:41:00;100451.72;;;-0.12;100.00
55916;BME280;41826;53.246;-6.670;2023-01-19T08:43:26;100456.59;;;-0.08;100.00
55916;BME280;41826;53.246;-6.670;2023-01-19T08:45:51;100472.09;;;-0.08;100.00
55916;BME280;41826;53.246;-6.670;2023-01-19T08:48:19;100472.53;;;0.01;100.00
55916;BME280;41826;53.246;-6.670;2023-01-19T08:50:47;100481.69;;;-0.10;100.00
55916;BME280;41826;53.246;-6.670;2023-01-19T08:53:13;100480.69;;;-0.07;100.00
55916;BME280;41826;53.246;-6.670;2023-01-19T08:55:39;100483.09;;;-0.04;100.00
55916;BME280;41826;53.246;-6.670;2023-01-19T08:58:05;100485.94;;;-0.26;100.00
55916;BME280;41826;53.246;-6.670;2023-01-19T09:00:37;100486.53;;;-0.21;100.00
55916;BME280;41826;53.246;-6.670;2023-01-19T09:03:04;100492.06;;;-0.11;100.00
55916;BME280;41826;53.246;-6.670;2023-01-19T09:05:32;100493.53;;;-0.23;100.00
55916;BME280;41826;53.246;-6.670;2023-01-19T09:08:00;100494.66;;;-0.11;100.00
55916;BME280;41826;53.246;-6.670;2023-01-19T09:10:27;100502.59;;;0.17;100.00
55916;BME280;41826;53.246;-6.670;2023-01-19T09:12:56;100498.00;;;0.22;100.00
55916;BME280;41826;53.246;-6.670;2023-01-19T09:15:22;100498.94;;;0.06;100.00
55916;BME280;41826;53.246;-6.670;2023-01-19T09:17:47;100494.38;;;-0.23;100.00
55916;BME280;41826;53.246;-6.670;2023-01-19T09:20:13;100495.72;;;-0.15;100.00
55916;BME280;41826;53.246;-6.670;2023-01-19T09:22:38;100491.59;;;-0.02;100.00
55916;BME280;41826;53.246;-6.670;2023-01-19T09:25:05;100497.59;;;-0.02;100.00
55916;BME280;41826;53.246;-6.670;2023-01-19T09:27:31;100492.25;;;0.02;100.00
55916;BME280;41826;53.246;-6.670;2023-01-19T09:29:56;100494.72;;;-0.13;100.00
55916;BME280;41826;53.246;-6.670;2023-01-19T09:32:21;100496.41;;;0.04;100.00
55916;BME280;41826;53.246;-6.670;2023-01-19T09:34:47;100505.25;;;0.00;100.00
55916;BME280;41826;53.246;-6.670;2023-01-19T09:37:13;100504.25;;;0.03;100.00
55916;BME280;41826;53.246;-6.670;2023-01-19T09:39:40;100514.06;;;0.12;100.00
55916;BME280;41826;53.246;-6.670;2023-01-19T09:45:12;100511.78;;;0.23;100.00
55916;BME280;41826;53.246;-6.670;2023-01-19T09:47:39;100508.09;;;0.27;100.00
55916;BME280;41826;53.246;-6.670;2023-01-19T09:50:12;100504.28;;;0.18;100.00
55916;BME280;41826;53.246;-6.670;2023-01-19T09:52:42;100502.28;;;0.24;100.00
55916;BME280;41826;53.246;-6.670;2023-01-19T09:55:21;100506.63;;;0.23;100.00
55916;BME280;41826;53.246;-6.670;2023-01-19T09:57:48;100519.06;;;0.15;100.00
55916;BME280;41826;53.246;-6.670;2023-01-19T10:00:16;100520.25;;;0.25;100.00
55916;BME280;41826;53.246;-6.670;2023-01-19T10:02:57;100521.00;;;0.27;100.00
55916;BME280;41826;53.246;-6.670;2023-01-19T10:06:00;100522.09;;;0.23;100.00
55916;BME280;41826;53.246;-6.670;2023-01-19T10:08:35;100535.31;;;0.33;100.00
55916;BME280;41826;53.246;-6.670;2023-01-19T10:11:21;100538.00;;;0.31;100.00
55916;BME280;41826;53.246;-6.670;2023-01-19T10:13:49;100537.66;;;0.21;100.00
55916;BME280;41826;53.246;-6.670;2023-01-19T10:19:28;100552.22;;;0.22;100.00
55916;BME280;41826;53.246;-6.670;2023-01-19T10:21:57;100554.41;;;0.30;100.00
55916;BME280;41826;53.246;-6.670;2023-01-19T10:24:40;100560.59;;;0.43;100.00
55916;BME280;41826;53.246;-6.670;2023-01-19T10:27:16;100562.25;;;0.45;100.00
55916;BME280;41826;53.246;-6.670;2023-01-19T10:29:43;100574.25;;;0.46;100.00
55916;BME280;41826;53.246;-6.670;2023-01-19T10:32:23;100570.69;;;0.48;100.00
55916;BME280;41826;53.246;-6.670;2023-01-19T10:34:50;100573.94;;;0.52;100.00
55916;BME280;41826;53.246;-6.670;2023-01-19T10:39:51;100584.00;;;0.72;100.00
55916;BME280;41826;53.246;-6.670;2023-01-19T10:42:18;100596.09;;;0.72;100.00
55916;BME280;41826;53.246;-6.670;2023-01-19T10:44:44;100592.75;;;0.70;100.00
55916;BME280;41826;53.246;-6.670;2023-01-19T10:47:18;100597.00;;;0.71;100.00
55916;BME280;41826;53.246;-6.670;2023-01-19T10:49:44;100597.59;;;0.76;100.00
55916;BME280;41826;53.246;-6.670;2023-01-19T10:52:27;100600.69;;;0.82;100.00
55916;BME280;41826;53.246;-6.670;2023-01-19T10:54:54;100597.28;;;0.82;100.00
55916;BME280;41826;53.246;-6.670;2023-01-19T10:57:40;100610.84;;;0.85;100.00
55916;BME280;41826;53.246;-6.670;2023-01-19T11:00:38;100597.84;;;0.87;100.00
55916;BME280;41826;53.246;-6.670;2023-01-19T11:03:27;100607.25;;;0.88;100.00
55916;BME280;41826;53.246;-6.670;2023-01-19T11:06:03;100604.69;;;0.88;100.00
55916;BME280;41826;53.246;-6.670;2023-01-19T11:08:47;100606.25;;;0.91;100.00
55916;BME280;41826;53.246;-6.670;2023-01-19T11:11:16;100610.59;;;0.90;100.00
55916;BME280;41826;53.246;-6.670;2023-01-19T11:13:43;100618.03;;;0.96;100.00
55916;BME280;41826;53.246;-6.670;2023-01-19T11:16:17;100620.63;;;0.96;100.00
55916;BME280;41826;53.246;-6.670;2023-01-19T11:18:50;100624.38;;;1.06;100.00
55916;BME280;41826;53.246;-6.670;2023-01-19T11:21:16;100621.69;;;1.08;100.00
55916;BME280;41826;53.246;-6.670;2023-01-19T11:23:52;100626.78;;;1.10;100.00
55916;BME280;41826;53.246;-6.670;2023-01-19T11:26:31;100623.25;;;1.11;100.00
55916;BME280;41826;53.246;-6.670;2023-01-19T11:29:00;100628.84;;;1.19;100.00
55916;BME280;41826;53.246;-6.670;2023-01-19T11:33:54;100635.75;;;1.18;100.00
55916;BME280;41826;53.246;-6.670;2023-01-19T11:36:25;100635.59;;;1.21;100.00
55916;BME280;41826;53.246;-6.670;2023-01-19T11:38:56;100629.53;;;1.22;100.00
55916;BME280;41826;53.246;-6.670;2023-01-19T11:41:25;100622.53;;;1.24;100.00
55916;BME280;41826;53.246;-6.670;2023-01-19T11:43:57;100622.09;;;1.32;100.00
55916;BME280;41826;53.246;-6.670;2023-01-19T11:46:25;100622.91;;;1.33;100.00
55916;BME280;41826;53.246;-6.670;2023-01-19T11:52:03;100628.47;;;1.41;100.00
55916;BME280;41826;53.246;-6.670;2023-01-19T11:54:34;100631.81;;;1.43;100.00
55916;BME280;41826;53.246;-6.670;2023-01-19T11:57:10;100630.13;;;1.42;100.00
55916;BME280;41826;53.246;-6.670;2023-01-19T11:59:36;100635.06;;;1.46;100.00
55916;BME280;41826;53.246;-6.670;2023-01-19T12:02:14;100644.41;;;1.49;100.00
55916;BME280;41826;53.246;-6.670;2023-01-19T12:04:41;100638.41;;;1.48;100.00
55916;BME280;41826;53.246;-6.670;2023-01-19T12:07:10;100642.66;;;1.49;100.00
55916;BME280;41826;53.246;-6.670;2023-01-19T12:09:42;100636.19;;;1.57;100.00
55916;BME280;41826;53.246;-6.670;2023-01-19T12:12:22;100637.63;;;1.62;100.00
55916;BME280;41826;53.246;-6.670;2023-01-19T12:17:48;100634.09;;;1.63;100.00
55916;BME280;41826;53.246;-6.670;2023-01-19T12:28:25;100637.84;;;1.73;100.00
55916;BME280;41826;53.246;-6.670;2023-01-19T12:30:52;100642.94;;;1.75;100.00
55916;BME280;41826;53.246;-6.670;2023-01-19T12:41:21;100631.94;;;1.86;100.00
55916;BME280;41826;53.246;-6.670;2023-01-19T12:54:40;100643.44;;;1.96;100.00
55916;BME280;41826;53.246;-6.670;2023-01-19T12:57:16;100635.47;;;1.99;100.00
55916;BME280;41826;53.246;-6.670;2023-01-19T12:59:44;100632.72;;;2.02;100.00
55916;BME280;41826;53.246;-6.670;2023-01-19T13:05:10;100638.44;;;2.07;100.00
55916;BME280;41826;53.246;-6.670;2023-01-19T13:21:10;100639.13;;;2.25;100.00
55916;BME280;41826;53.246;-6.670;2023-01-19T13:26:21;100632.19;;;2.26;100.00
55916;BME280;41826;53.246;-6.670;2023-01-19T13:28:54;100636.91;;;2.33;100.00
55916;BME280;41826;53.246;-6.670;2023-01-19T13:31:20;100636.72;;;2.36;100.00
55916;BME280;41826;53.246;-6.670;2023-01-19T13:33:53;100641.63;;;2.41;100.00
55916;BME280;41826;53.246;-6.670;2023-01-19T13:36:36;100639.13;;;2.39;100.00
55916;BME280;41826;53.246;-6.670;2023-01-19T13:39:11;100636.19;;;2.46;100.00
55916;BME280;41826;53.246;-6.670;2023-01-19T13:41:39;100636.19;;;2.46;100.00
55916;BME280;41826;53.246;-6.670;2023-01-19T13:44:18;100634.22;;;2.49;100.00
55916;BME280;41826;53.246;-6.670;2023-01-19T13:46:46;100634.69;;;2.56;100.00
55916;BME280;41826;53.246;-6.670;2023-01-19T13:49:14;100636.16;;;2.60;100.00
55916;BME280;41826;53.246;-6.670;2023-01-19T13:51:42;100637.53;;;2.66;100.00
55916;BME280;41826;53.246;-6.670;2023-01-19T13:54:14;100646.03;;;2.82;100.00
55916;BME280;41826;53.246;-6.670;2023-01-19T13:56:46;100647.81;;;2.81;100.00
55916;BME280;41826;53.246;-6.670;2023-01-19T13:59:16;100647.16;;;2.78;100.00
55916;BME280;41826;53.246;-6.670;2023-01-19T14:01:43;100643.94;;;2.74;100.00